Time;durP1;ratioP1;P1;durP2;ratioP2;P2;SDS_P1;SDS_P2;PMS_P1;PMS_P2;Temp;Humidity;BMP_temperature;BMP_pressure;BME280_temperature;BME280_humidity;BME280_pressure;Samples;Min_cycle;Max_cycle;Signal;HPM_P1;HPM_P2
2022/10/28 16:45:54;;;;;;;;;;;;;;;;;;10196613;27;20833;-65
2022/10/28 16:50:56;;;;;;;;;;;;;;;;;;10500316;28;19929;-66
2022/10/28 16:55:58;;;;;;;;;;;;;;;;;;10500322;28;19924;-66
2022/10/28 17:01:00;;;;;;;;;;;;;;;;;;10500807;28;19924;-66
2022/10/28 17:06:02;;;;;;;;;;;;;;;;;;10500114;28;20375;-65
2022/10/28 17:11:04;;;;;;;;;;;;;;;;;;10499912;28;19928;-65
2022/10/28 17:16:06;;;;;;;;;;;;;;;;;;10499703;28;19925;-65
2022/10/28 17:21:08;;;;;;;;;;;;;;;;;;10500122;28;19924;-66
2022/10/28 17:26:10;;;;;;;;;;;;;;;;;;10494200;28;19929;-65
2022/10/28 17:31:14;;;;;;;;;;;;;;;;;;10510356;28;19931;-65
2022/10/28 17:36:21;;;;;;;;;;;;;;;;;;10519402;28;19983;-65
2022/10/28 17:41:23;;;;;;;;;;;;;;;;;;10498625;28;20497;-65
2022/10/28 17:46:26;;;;;;;;;;;;;;;;;;10503646;28;19950;-65
2022/10/28 17:51:29;;;;;;;;;;;;;;;;;;10540221;28;19928;-66
2022/10/28 17:56:31;;;;;;;;;;;;;;;;;;10533962;28;20257;-65
2022/10/28 18:01:33;;;;;;;;;;;;;;;;;;10503913;22;19924;-67
2022/10/28 18:06:36;;;;;;;;;;;;;;;;;;10578892;28;19927;-67
2022/10/28 18:11:38;;;;;;;;;;;;;;;;;;10580501;28;19976;-67
2022/10/28 18:16:40;;;;;;;;;;;;;;;;;;10578692;28;19932;-67
2022/10/28 18:21:43;;;;;;;;;;;;;;;;;;10560593;28;19927;-68
2022/10/28 18:26:45;;;;;;;;;;;;;;;;;;10613579;28;19924;-67
2022/10/28 18:31:48;;;;;;;;;;;;;;;;;;10562629;28;19924;-68
2022/10/28 18:36:50;;;;;;;;;;;;;;;;;;10562274;28;19924;-67
2022/10/28 18:41:52;;;;;;;;;;;;;;;;;;10579100;28;20443;-67
2022/10/28 18:46:54;;;;;;;;;;;;;;;;;;10580409;28;19923;-67
2022/10/28 18:51:58;;;;;;;;;;;;;;;;;;10580450;28;19977;-67
2022/10/28 18:57:00;;;;;;;;;;;;;;;;;;10578570;28;19924;-67
2022/10/28 19:02:02;;;;;;;;;;;;;;;;;;10597258;27;19928;-67
2022/10/28 19:07:05;;;;;;;;;;;;;;;;;;10588814;28;19924;-67
2022/10/28 19:12:07;;;;;;;;;;;;;;;;;;10588163;28;19928;-67
2022/10/28 19:17:10;;;;;;;;;;;;;;;;;;10586811;28;20416;-67
2022/10/28 19:22:12;;;;;;;;;;;;;;;;;;10587495;27;19928;-67
2022/10/28 19:27:14;;;;;;;;;;;;;;;;;;10585012;28;19924;-67
2022/10/28 19:32:16;;;;;;;;;;;;;;;;;;10586521;28;19931;-67
2022/10/28 19:37:19;;;;;;;;;;;;;;;;;;10588365;27;19924;-67
2022/10/28 19:42:21;;;;;;;;;;;;;;;;;;10585947;28;20271;-67
2022/10/28 19:47:23;;;;;;;;;;;;;;;;;;10586765;28;19953;-67
2022/10/28 19:52:26;;;;;;;;;;;;;;;;;;10585260;28;20400;-67
2022/10/28 19:57:28;;;;;;;;;;;;;;;;;;10586169;28;19950;-68
2022/10/28 20:02:30;;;;;;;;;;;;;;;;;;10585096;28;20336;-67
2022/10/28 20:07:33;;;;;;;;;;;;;;;;;;10584105;27;19934;-67
2022/10/28 20:12:35;;;;;;;;;;;;;;;;;;10584715;28;20370;-67
2022/10/28 20:17:37;;;;;;;;;;;;;;;;;;10586041;28;19923;-67
2022/10/28 20:22:39;;;;;;;;;;;;;;;;;;10586083;28;19969;-68
2022/10/28 20:27:43;;;;;;;;;;;;;;;;;;10585799;28;19935;-68
2022/10/28 20:32:45;;;;;;;;;;;;;;;;;;10585261;28;19923;-67
2022/10/28 20:37:47;;;;;;;;;;;;;;;;;;10586130;28;19924;-67
2022/10/28 20:42:49;;;;;;;;;;;;;;;;;;10585222;28;20267;-67
2022/10/28 20:47:52;;;;;;;;;;;;;;;;;;10584815;28;19932;-67
2022/10/28 20:52:54;;;;;;;;;;;;;;;;;;10586134;28;19928;-67
2022/10/28 20:57:56;;;;;;;;;;;;;;;;;;10585377;28;19963;-67
2022/10/28 21:02:58;;;;;;;;;;;;;;;;;;10583033;28;19924;-67
2022/10/28 21:08:01;;;;;;;;;;;;;;;;;;10597863;27;19923;-67
2022/10/28 21:13:03;;;;;;;;;;;;;;;;;;10589767;27;19924;-67
2022/10/28 21:18:05;;;;;;;;;;;;;;;;;;10583642;28;19924;-67
2022/10/28 21:23:07;;;;;;;;;;;;;;;;;;10583615;28;20267;-67
2022/10/28 21:28:09;;;;;;;;;;;;;;;;;;10584026;28;19924;-67
2022/10/28 21:33:12;;;;;;;;;;;;;;;;;;10580693;28;19931;-68
2022/10/28 21:38:15;;;;;;;;;;;;;;;;;;10582666;28;19923;-67
2022/10/28 21:43:17;;;;;;;;;;;;;;;;;;10583533;28;19981;-67
2022/10/28 21:48:19;;;;;;;;;;;;;;;;;;10582644;28;19924;-67
2022/10/28 21:53:22;;;;;;;;;;;;;;;;;;10582702;28;20367;-67
2022/10/28 21:58:24;;;;;;;;;;;;;;;;;;10583168;28;19928;-67
2022/10/28 22:03:26;;;;;;;;;;;;;;;;;;10581310;28;19924;-67
2022/10/28 22:08:28;;;;;;;;;;;;;;;;;;10582268;28;19928;-67
2022/10/28 22:13:30;;;;;;;;;;;;;;;;;;10582037;28;19924;-68
2022/10/28 22:18:32;;;;;;;;;;;;;;;;;;10581192;28;20431;-67
2022/10/28 22:23:34;;;;;;;;;;;;;;;;;;10582465;28;19928;-67
2022/10/28 22:28:36;;;;;;;;;;;;;;;;;;10581765;28;19923;-67
2022/10/28 22:33:38;;;;;;;;;;;;;;;;;;10580783;28;19969;-67
2022/10/28 22:38:40;;;;;;;;;;;;;;;;;;10586211;28;20290;-67
2022/10/28 22:43:42;;;;;;;;;;;;;;;;;;10590647;28;20087;-67
2022/10/28 22:48:44;;;;;;;;;;;;;;;;;;10589923;28;19969;-67
2022/10/28 22:53:46;;;;;;;;;;;;;;;;;;10589503;28;19924;-67
2022/10/28 22:58:48;;;;;;;;;;;;;;;;;;10588694;28;19924;-67
2022/10/28 23:03:50;;;;;;;;;;;;;;;;;;10588794;28;19936;-67
2022/10/28 23:08:53;;;;;;;;;;;;;;;;;;10589695;28;19927;-67
2022/10/28 23:13:55;;;;;;;;;;;;;;;;;;10588099;28;20428;-67
2022/10/28 23:18:57;;;;;;;;;;;;;;;;;;10588696;28;19969;-67
2022/10/28 23:23:59;;;;;;;;;;;;;;;;;;10589093;28;19927;-67
2022/10/28 23:29:01;;;;;;;;;;;;;;;;;;10588057;28;19927;-67
2022/10/28 23:34:03;;;;;;;;;;;;;;;;;;10588120;27;20390;-67
2022/10/28 23:39:05;;;;;;;;;;;;;;;;;;10587229;28;19924;-67
2022/10/28 23:44:07;;;;;;;;;;;;;;;;;;10588356;28;19973;-67
2022/10/28 23:49:09;;;;;;;;;;;;;;;;;;10586824;28;19973;-67
2022/10/28 23:54:11;;;;;;;;;;;;;;;;;;10586309;28;19932;-67
2022/10/28 23:59:14;;;;;;;;;;;;;;;;;;10586193;28;19928;-67
